createdAt,value
2022-08-09T00:00:00.505Z,102112.03
2022-08-09T00:02:28.566Z,102114.94
2022-08-09T00:05:03.191Z,102118.53
2022-08-09T00:07:44.878Z,102120.22
2022-08-09T00:10:18.034Z,102115.41
2022-08-09T00:12:52.477Z,102122.41
2022-08-09T00:15:20.382Z,102116.25
2022-08-09T00:18:05.840Z,102120.72
2022-08-09T00:20:42.135Z,102122.41
2022-08-09T00:23:55.530Z,102118.66
2022-08-09T00:26:05.112Z,102118.06
2022-08-09T00:28:34.394Z,102115.25
2022-08-09T00:31:55.820Z,102121.56
2022-08-09T00:33:51.966Z,102116.72
2022-08-09T00:36:19.992Z,102108.88
2022-08-09T00:38:50.693Z,102116.97
2022-08-09T00:44:18.734Z,102117.06
2022-08-09T00:44:25.327Z,102112.16
2022-08-09T00:46:57.658Z,102112.28
2022-08-09T00:49:36.833Z,102106.97
2022-08-09T00:52:15.933Z,102108.88
2022-08-09T00:54:45.587Z,102117.78
2022-08-09T00:57:12.813Z,102111.66
2022-08-09T00:59:46.947Z,102116.38
2022-08-09T01:02:22.205Z,102107.44
2022-08-09T01:05:22.011Z,102120.00
2022-08-09T01:08:04.743Z,102109.50
2022-08-09T01:10:38.768Z,102116.97
2022-08-09T01:13:31.063Z,102109.97
2022-08-09T01:16:12.896Z,102111.53
2022-08-09T01:18:47.594Z,102113.72
2022-08-09T01:21:51.083Z,102112.75
2022-08-09T01:24:26.369Z,102108.41
2022-08-09T01:26:55.006Z,102113.47
2022-08-09T01:29:40.946Z,102108.75
2022-08-09T01:32:30.906Z,102103.81
2022-08-09T01:35:06.990Z,102104.19
2022-08-09T01:38:08.209Z,102112.59
2022-08-09T01:40:35.681Z,102114.19
2022-08-09T01:43:04.961Z,102110.19
2022-08-09T01:45:35.516Z,102121.31
2022-08-09T01:48:14.209Z,102118.78
2022-08-09T01:50:48.378Z,102114.56
2022-08-09T01:53:19.409Z,102119.41
2022-08-09T01:55:48.720Z,102109.66
2022-08-09T01:58:16.604Z,102115.41
2022-08-09T02:00:50.672Z,102113.50
2022-08-09T02:03:19.555Z,102119.06
2022-08-09T02:06:03.861Z,102109.63
2022-08-09T02:08:58.559Z,102119.28
2022-08-09T02:11:40.300Z,102113.88
2022-08-09T02:14:15.072Z,102114.09
2022-08-09T02:16:59.912Z,102119.66
2022-08-09T02:19:43.268Z,102117.13
2022-08-09T02:22:19.097Z,102117.97
2022-08-09T02:24:59.120Z,102119.88
2022-08-09T02:27:43.508Z,102123.50
2022-08-09T02:30:16.276Z,102120.97
2022-08-09T02:32:47.588Z,102119.53
2022-08-09T02:35:46.356Z,102113.38
2022-08-09T02:38:10.825Z,102117.84
2022-08-09T02:40:49.334Z,102117.97
2022-08-09T02:43:19.539Z,102113.63
2022-08-09T02:45:52.164Z,102121.91
2022-08-09T02:48:30.705Z,102118.44
2022-08-09T02:51:02.587Z,102117.72
2022-08-09T02:53:37.068Z,102117.13
2022-08-09T02:56:06.277Z,102128.81
2022-08-09T02:58:37.960Z,102135.91
2022-08-09T03:01:10.974Z,102125.78
2022-08-09T03:04:17.660Z,102130.38
2022-08-09T03:06:29.331Z,102130.59
2022-08-09T03:08:57.694Z,102125.53
2022-08-09T03:12:06.555Z,102131.81
2022-08-09T03:14:13.630Z,102133.84
2022-08-09T03:16:47.530Z,102129.38
2022-08-09T03:19:52.461Z,102135.28
2022-08-09T03:22:12.067Z,102126.34
2022-08-09T03:24:52.126Z,102128.19
2022-08-09T03:27:22.232Z,102125.75
2022-08-09T03:30:00.947Z,102127.56
2022-08-09T03:32:31.165Z,102132.75
2022-08-09T03:34:59.854Z,102131.66
2022-08-09T03:37:56.180Z,102138.06
2022-08-09T03:40:17.897Z,102132.75
2022-08-09T03:42:45.719Z,102132.03
2022-08-09T03:45:13.468Z,102137.22
2022-08-09T03:47:42.078Z,102141.09
2022-08-09T03:50:14.648Z,102137.22
2022-08-09T03:52:56.239Z,102139.16
2022-08-09T03:55:24.731Z,102141.94
2022-08-09T03:58:06.684Z,102143.03
2022-08-09T04:00:42.340Z,102142.41
2022-08-09T04:03:11.878Z,102148.66
2022-08-09T04:05:46.802Z,102153.03
2022-08-09T04:08:13.493Z,102145.28
2022-08-09T04:10:40.285Z,102152.16
2022-08-09T04:13:11.508Z,102147.72
2022-08-09T04:16:18.797Z,102158.19
2022-08-09T04:18:25.859Z,102162.66
2022-08-09T04:20:55.554Z,102165.19
2022-08-09T04:23:24.999Z,102163.16
2022-08-09T04:25:54.238Z,102156.03
2022-08-09T04:28:32.887Z,102169.66
2022-08-09T04:31:01.028Z,102166.78
2022-08-09T04:33:47.349Z,102172.69
2022-08-09T04:36:24.617Z,102162.81
2022-08-09T04:38:51.380Z,102169.44
2022-08-09T04:41:19.051Z,102168.13
2022-08-09T04:44:05.104Z,102169.94
2022-08-09T04:46:37.986Z,102178.38
2022-08-09T04:49:30.296Z,102169.81
2022-08-09T04:52:09.738Z,102186.09
2022-08-09T04:54:37.140Z,102186.22
2022-08-09T04:57:04.416Z,102182.47
2022-08-09T04:59:31.495Z,102186.72
2022-08-09T05:01:58.824Z,102185.38
2022-08-09T05:04:30.745Z,102190.69
2022-08-09T05:06:58.398Z,102187.56
2022-08-09T05:09:25.408Z,102187.19
2022-08-09T05:12:09.613Z,102185.53
2022-08-09T05:14:37.968Z,102192.91
2022-08-09T05:18:36.729Z,102190.31
2022-08-09T05:19:57.065Z,102194.28
2022-08-09T05:22:36.316Z,102201.28
2022-08-09T05:25:15.121Z,102201.28
2022-08-09T05:27:46.548Z,102208.13
2022-08-09T05:30:17.648Z,102207.41
2022-08-09T05:32:50.800Z,102206.69
2022-08-09T05:35:22.024Z,102207.28
2022-08-09T05:37:50.580Z,102215.03
2022-08-09T05:40:18.245Z,102213.16
2022-08-09T05:42:45.214Z,102211.69
2022-08-09T05:45:14.236Z,102215.53
2022-08-09T05:47:51.727Z,102223.38
2022-08-09T05:50:30.508Z,102229.34
2022-08-09T05:53:06.202Z,102225.91
2022-08-09T05:55:38.599Z,102219.44
2022-08-09T05:58:07.144Z,102226.75
2022-08-09T06:00:34.023Z,102232.69
2022-08-09T06:03:03.389Z,102226.91
2022-08-09T06:05:50.549Z,102224.16
2022-08-09T06:08:24.573Z,102227.75
2022-08-09T06:10:56.236Z,102226.69
2022-08-09T06:13:28.342Z,102232.47
2022-08-09T06:16:00.343Z,102236.28
2022-08-09T06:18:28.871Z,102236.31
2022-08-09T06:20:57.713Z,102231.22
2022-08-09T06:23:58.537Z,102242.41
2022-08-09T06:26:20.999Z,102240.13
2022-08-09T06:29:00.728Z,102246.41
2022-08-09T06:31:39.271Z,102244.06
2022-08-09T06:34:19.015Z,102259.28
2022-08-09T06:36:45.883Z,102249.63
2022-08-09T06:39:13.640Z,102256.94
2022-08-09T06:42:08.668Z,102252.06
2022-08-09T06:44:28.000Z,102256.69
2022-08-09T06:46:55.491Z,102259.19
2022-08-09T06:49:44.884Z,102258.19
2022-08-09T06:52:10.560Z,102265.06
2022-08-09T06:54:38.944Z,102270.97
2022-08-09T06:57:08.353Z,102261.38
2022-08-09T07:00:51.426Z,102266.75
2022-08-09T07:02:22.109Z,102265.25
2022-08-09T07:04:56.204Z,102270.72
2022-08-09T07:08:00.807Z,102261.88
2022-08-09T07:10:22.484Z,102265.03
2022-08-09T07:12:57.638Z,102272.88
2022-08-09T07:16:36.539Z,102274.69
2022-08-09T07:18:11.314Z,102280.09
2022-08-09T07:20:43.484Z,102267.44
2022-08-09T07:23:18.620Z,102277.53
2022-08-09T07:25:47.349Z,102279.47
2022-08-09T07:28:19.314Z,102274.59
2022-08-09T07:30:54.914Z,102278.69
2022-08-09T07:33:21.939Z,102286.69
2022-08-09T07:35:53.515Z,102282.91
2022-08-09T07:38:23.807Z,102280.91
2022-08-09T07:41:11.837Z,102279.81
2022-08-09T07:43:41.123Z,102284.56
2022-08-09T07:46:17.266Z,102287.53
2022-08-09T07:48:46.456Z,102291.44
2022-08-09T07:52:06.086Z,102285.88
2022-08-09T07:54:12.809Z,102289.50
2022-08-09T07:56:48.631Z,102289.38
2022-08-09T07:59:25.667Z,102293.00
2022-08-09T08:02:05.486Z,102298.06
2022-08-09T08:04:33.204Z,102290.84
2022-08-09T08:07:09.293Z,102290.28
2022-08-09T08:09:51.558Z,102291.25
2022-08-09T08:12:27.545Z,102292.09
2022-08-09T08:29:27.816Z,102272.88
2022-08-09T09:27:02.847Z,102282.19
2022-08-09T09:30:14.312Z,102287.44
2022-08-09T09:32:34.262Z,102284.66
2022-08-09T09:35:15.960Z,102277.69
2022-08-09T09:37:45.861Z,102281.91
2022-08-09T09:40:13.173Z,102282.56
2022-08-09T09:42:42.996Z,102286.25
2022-08-09T09:45:14.345Z,102276.38
2022-08-09T09:47:56.412Z,102279.28
2022-08-09T09:50:49.584Z,102272.25
2022-08-09T09:53:43.814Z,102280.16
2022-08-09T09:56:31.295Z,102281.75
2022-08-09T09:58:58.058Z,102277.34
2022-08-09T10:01:30.275Z,102275.19
2022-08-09T10:04:09.683Z,102275.47
2022-08-09T10:06:43.461Z,102268.69
2022-08-09T10:09:22.532Z,102276.81
2022-08-09T10:12:12.837Z,102262.50
2022-08-09T10:14:49.450Z,102263.03
2022-08-09T10:17:50.376Z,102253.09
2022-08-09T10:20:27.316Z,102261.44
2022-08-09T10:23:13.492Z,102264.38
2022-08-09T10:26:07.795Z,102252.56
2022-08-09T10:28:32.843Z,102258.44
2022-08-09T10:37:45.329Z,102251.34
2022-08-09T10:40:35.198Z,102263.19
2022-08-09T10:43:00.812Z,102247.66
2022-08-09T10:45:31.952Z,102256.56
2022-08-09T10:48:31.309Z,102255.22
2022-08-09T10:51:29.728Z,102259.91
2022-08-09T10:54:04.979Z,102254.97
2022-08-09T10:56:35.095Z,102249.94
2022-08-09T10:59:30.978Z,102253.34
2022-08-09T11:03:15.302Z,102251.78
2022-08-09T11:05:24.886Z,102248.38
2022-08-09T11:08:17.154Z,102248.13
2022-08-09T11:10:47.038Z,102244.38
2022-08-09T11:13:49.180Z,102240.69
2022-08-09T11:16:37.426Z,102241.16
2022-08-09T11:19:10.738Z,102233.41
2022-08-09T11:21:57.485Z,102237.06
2022-08-09T11:24:58.184Z,102238.47
2022-08-09T11:28:05.637Z,102234.88
2022-08-09T11:30:32.452Z,102233.47
2022-08-09T11:33:05.813Z,102230.19
2022-08-09T11:35:50.249Z,102232.63
2022-08-09T11:38:32.619Z,102236.03
2022-08-09T11:41:37.960Z,102241.19
2022-08-09T11:44:05.660Z,102240.09
2022-08-09T11:46:55.131Z,102242.53
2022-08-09T11:50:55.787Z,102239.97
2022-08-09T11:53:16.368Z,102241.06
2022-08-09T11:55:52.270Z,102235.94
2022-08-09T11:58:32.523Z,102228.22
2022-08-09T12:01:37.336Z,102225.53
2022-08-09T12:04:04.086Z,102227.28
2022-08-09T12:06:35.140Z,102219.63
2022-08-09T12:09:19.416Z,102218.78
2022-08-09T12:12:05.879Z,102216.53
2022-08-09T12:15:04.013Z,102221.13
2022-08-09T12:17:34.258Z,102211.56
2022-08-09T12:20:21.736Z,102205.78
2022-08-09T12:22:55.760Z,102212.59
2022-08-09T12:25:36.037Z,102226.13
2022-08-09T12:29:15.615Z,102218.59
2022-08-09T12:30:57.801Z,102219.91
2022-08-09T12:33:35.421Z,102218.66
2022-08-09T12:36:27.614Z,102222.88
2022-08-09T12:38:59.849Z,102224.97
2022-08-09T12:41:38.058Z,102227.59
2022-08-09T12:44:09.728Z,102208.06
2022-08-09T12:46:39.696Z,102205.44
2022-08-09T12:49:08.769Z,102216.28
2022-08-09T12:52:01.672Z,102207.13
2022-08-09T12:54:23.888Z,102196.25
2022-08-09T12:56:54.033Z,102190.38
2022-08-09T12:59:23.677Z,102190.69
2022-08-09T13:01:59.541Z,102193.06
2022-08-09T13:04:36.198Z,102185.53
2022-08-09T13:07:19.589Z,102190.47
2022-08-09T13:09:56.003Z,102194.94
2022-08-09T13:12:28.197Z,102189.91
2022-08-09T13:15:05.016Z,102194.03
2022-08-09T13:18:03.779Z,102188.13
2022-08-09T13:20:37.912Z,102185.47
2022-08-09T13:24:15.963Z,102186.75
2022-08-09T13:26:49.941Z,102178.50
2022-08-09T13:29:42.146Z,102170.97
2022-08-09T13:32:13.879Z,102173.09
2022-08-09T13:34:45.024Z,102168.16
2022-08-09T13:37:13.221Z,102166.09
2022-08-09T13:41:52.561Z,102178.78
2022-08-09T13:42:46.859Z,102181.53
2022-08-09T13:45:14.718Z,102179.97
2022-08-09T13:47:51.208Z,102177.31
2022-08-09T13:50:30.500Z,102177.13
2022-08-09T13:52:58.382Z,102191.19
2022-08-09T13:55:28.679Z,102180.81
2022-08-09T13:57:58.524Z,102177.00
2022-08-09T14:00:28.963Z,102178.34
2022-08-09T14:05:58.644Z,102179.13
2022-08-09T14:08:18.133Z,102162.22
2022-08-09T14:10:50.314Z,102176.00
2022-08-09T14:13:28.126Z,102177.00
2022-08-09T14:16:13.878Z,102174.41
2022-08-09T14:18:45.521Z,102160.44
2022-08-09T14:21:18.641Z,102166.38
2022-08-09T14:23:53.831Z,102170.34
2022-08-09T14:26:33.704Z,102160.97
2022-08-09T14:29:07.903Z,102169.72
2022-08-09T14:31:53.638Z,102174.09
2022-08-09T14:34:31.932Z,102169.44
2022-08-09T14:37:08.221Z,102172.22
2022-08-09T14:39:45.598Z,102174.72
2022-08-09T14:42:30.898Z,102176.53
2022-08-09T14:46:38.915Z,102169.34
2022-08-09T14:47:57.821Z,102162.94
2022-08-09T14:50:31.218Z,102172.16
2022-08-09T14:54:03.784Z,102161.25
2022-08-09T14:56:58.313Z,102158.78
2022-08-09T14:59:39.575Z,102161.19
2022-08-09T15:07:10.185Z,102158.34
2022-08-09T15:10:04.609Z,102154.06
2022-08-09T15:15:23.589Z,102166.09
2022-08-09T15:17:53.212Z,102162.47
2022-08-09T15:21:58.871Z,102164.47
2022-08-09T15:24:02.619Z,102166.22
2022-08-09T15:25:59.521Z,102157.75
2022-08-09T15:28:33.065Z,102171.44
2022-08-09T15:31:10.163Z,102159.25
2022-08-09T15:34:17.249Z,102152.81
2022-08-09T15:36:30.567Z,102152.09
2022-08-09T15:39:00.882Z,102155.59
2022-08-09T15:41:31.708Z,102160.25
2022-08-09T15:44:02.848Z,102155.31
2022-08-09T15:46:34.285Z,102149.28
2022-08-09T15:49:22.113Z,102141.38
2022-08-09T15:52:03.812Z,102140.75
2022-08-09T15:54:48.983Z,102143.81
2022-08-09T15:57:35.904Z,102145.44
2022-08-09T16:00:14.576Z,102149.03
2022-08-09T16:02:54.125Z,102150.84
2022-08-09T16:09:57.838Z,102132.03
2022-08-09T16:16:17.463Z,102138.63
2022-08-09T16:36:50.438Z,102128.16
2022-08-09T16:42:03.685Z,102130.09
2022-08-09T16:44:32.331Z,102135.91
2022-08-09T16:50:31.144Z,102121.34
2022-08-09T16:53:01.921Z,102139.91
2022-08-09T16:55:44.116Z,102121.13
2022-08-09T16:58:35.718Z,102134.69
2022-08-09T17:04:11.387Z,102131.25
2022-08-09T17:08:41.641Z,102133.78
2022-08-09T17:09:44.987Z,102130.63
2022-08-09T17:12:15.364Z,102146.28
2022-08-09T17:14:47.986Z,102139.22
2022-08-09T17:17:26.496Z,102138.94
2022-08-09T17:20:29.869Z,102142.78
2022-08-09T17:22:49.776Z,102149.34
2022-08-09T17:25:23.300Z,102148.19
2022-08-09T17:27:54.388Z,102152.53
2022-08-09T17:30:30.831Z,102154.56
2022-08-09T17:33:05.141Z,102150.50
2022-08-09T17:35:45.505Z,102155.38
2022-08-09T17:38:30.650Z,102154.56
2022-08-09T17:41:00.689Z,102151.84
2022-08-09T17:43:33.892Z,102162.06
2022-08-09T17:46:06.086Z,102165.94
2022-08-09T17:48:39.851Z,102165.41
2022-08-09T17:51:18.691Z,102161.69
2022-08-09T17:53:53.552Z,102168.06
2022-08-09T17:56:28.746Z,102160.94
2022-08-09T17:58:58.052Z,102156.03
2022-08-09T18:01:24.908Z,102166.47
2022-08-09T18:03:54.505Z,102167.13
2022-08-09T18:06:31.088Z,102167.72
2022-08-09T18:09:03.097Z,102168.38
2022-08-09T18:12:04.749Z,102174.34
2022-08-09T18:14:22.946Z,102170.34
2022-08-09T18:16:51.036Z,102170.63
2022-08-09T18:20:55.134Z,102172.94
2022-08-09T18:22:13.353Z,102183.00
2022-08-09T18:24:45.772Z,102185.81
2022-08-09T18:28:02.282Z,102185.41
2022-08-09T18:30:40.975Z,102183.09
2022-08-09T18:32:54.462Z,102183.03
2022-08-09T18:35:58.140Z,102192.97
2022-08-09T18:38:08.785Z,102193.38
2022-08-09T18:40:35.655Z,102190.53
2022-08-09T18:43:03.827Z,102200.16
2022-08-09T18:46:49.011Z,102192.84
2022-08-09T18:48:17.936Z,102198.00
2022-08-09T18:50:44.866Z,102197.09
2022-08-09T18:53:16.542Z,102202.22
2022-08-09T18:55:45.452Z,102208.16
2022-08-09T18:58:32.903Z,102197.63
2022-08-09T19:01:00.305Z,102206.56
2022-08-09T19:03:27.272Z,102210.81
2022-08-09T19:06:03.672Z,102216.88
2022-08-09T19:08:31.100Z,102224.06
2022-08-09T19:10:57.715Z,102220.84
2022-08-09T19:13:38.564Z,102225.25
2022-08-09T19:16:11.387Z,102225.16
2022-08-09T19:18:45.374Z,102234.00
2022-08-09T19:21:12.780Z,102232.97
2022-08-09T19:24:32.133Z,102233.03
2022-08-09T19:26:34.783Z,102244.94
2022-08-09T19:29:15.468Z,102238.38
2022-08-09T19:31:51.226Z,102241.31
2022-08-09T19:34:23.138Z,102244.84
2022-08-09T19:36:54.999Z,102244.28
2022-08-09T19:39:43.929Z,102244.97
2022-08-09T19:42:15.269Z,102251.72
2022-08-09T19:44:50.479Z,102242.63
2022-08-09T19:47:22.860Z,102245.16
2022-08-09T19:50:06.646Z,102251.59
2022-08-09T19:52:37.544Z,102247.78
2022-08-09T19:55:16.800Z,102252.84
2022-08-09T19:57:46.314Z,102248.50
2022-08-09T20:00:16.220Z,102248.34
2022-08-09T20:04:11.491Z,102241.47
2022-08-09T20:05:45.987Z,102243.03
2022-08-09T20:08:16.134Z,102244.72
2022-08-09T20:11:02.546Z,102250.56
2022-08-09T20:13:36.790Z,102255.84
2022-08-09T20:16:35.773Z,102255.03
2022-08-09T20:19:41.851Z,102263.84
2022-08-09T20:21:54.964Z,102265.38
2022-08-09T20:24:31.849Z,102265.69
2022-08-09T20:27:01.178Z,102273.06
2022-08-09T20:29:36.943Z,102274.28
2022-08-09T20:32:33.021Z,102274.91
2022-08-09T20:34:53.949Z,102266.47
2022-08-09T20:37:21.582Z,102264.09
2022-08-09T20:40:16.499Z,102269.13
2022-08-09T20:42:37.715Z,102272.34
2022-08-09T20:45:56.713Z,102265.78
2022-08-09T20:47:52.507Z,102265.63
2022-08-09T20:50:47.585Z,102259.34
2022-08-09T20:53:35.042Z,102270.50
2022-08-09T20:56:02.524Z,102270.06
2022-08-09T20:58:32.214Z,102271.16
2022-08-09T21:01:14.063Z,102281.47
2022-08-09T21:04:33.249Z,102281.44
2022-08-09T21:06:35.145Z,102272.38
2022-08-09T21:09:02.734Z,102285.13
2022-08-09T21:14:16.900Z,102281.28
2022-08-09T21:16:45.752Z,102291.66
2022-08-09T21:20:16.104Z,102278.75
2022-08-09T21:22:00.151Z,102288.63
2022-08-09T21:24:32.584Z,102292.78
2022-08-09T21:27:50.342Z,102300.16
2022-08-09T21:29:49.374Z,102293.69
2022-08-09T21:32:18.735Z,102293.34
2022-08-09T21:34:49.173Z,102292.63
2022-08-09T21:37:18.335Z,102297.84
2022-08-09T21:39:45.454Z,102296.19
2022-08-09T21:42:17.109Z,102294.00
2022-08-09T21:44:44.417Z,102291.81
2022-08-09T21:47:14.174Z,102291.75
2022-08-09T21:49:44.781Z,102290.19
2022-08-09T21:52:16.723Z,102287.53
2022-08-09T21:54:59.370Z,102297.69
2022-08-09T21:57:38.712Z,102296.25
2022-08-09T22:00:38.170Z,102302.06
2022-08-09T22:03:12.619Z,102293.63
2022-08-09T22:05:46.549Z,102294.97
2022-08-09T22:08:18.309Z,102303.31
2022-08-09T22:11:50.355Z,102298.25
2022-08-09T22:13:35.761Z,102298.97
2022-08-09T22:16:09.037Z,102297.66
2022-08-09T22:18:53.306Z,102302.47
2022-08-09T22:21:24.865Z,102297.16
2022-08-09T22:24:01.421Z,102298.25
2022-08-09T22:26:34.778Z,102305.03
2022-08-09T22:29:09.236Z,102307.78
2022-08-09T22:31:38.133Z,102299.31
2022-08-09T22:34:14.685Z,102293.19
2022-08-09T22:36:45.991Z,102301.63
2022-08-09T22:39:46.689Z,102291.88
2022-08-09T22:42:02.657Z,102302.72
2022-08-09T22:44:32.723Z,102302.72
2022-08-09T22:48:15.361Z,102301.41
2022-08-09T22:49:47.404Z,102302.97
2022-08-09T22:52:19.619Z,102296.81
2022-08-09T22:54:47.498Z,102300.78
2022-08-09T22:57:14.780Z,102298.56
2022-08-09T22:59:57.878Z,102305.31
2022-08-09T23:02:27.300Z,102310.25
2022-08-09T23:04:54.829Z,102310.13
2022-08-09T23:08:22.826Z,102310.50
2022-08-09T23:10:31.052Z,102309.41
2022-08-09T23:12:58.872Z,102309.00
2022-08-09T23:15:26.516Z,102313.94
2022-08-09T23:17:53.317Z,102302.09
2022-08-09T23:20:20.031Z,102314.00
2022-08-09T23:22:46.794Z,102312.56
2022-08-09T23:25:13.663Z,102307.38
2022-08-09T23:28:14.838Z,102311.94
2022-08-09T23:30:28.118Z,102318.09
2022-08-09T23:32:54.769Z,102307.47
2022-08-09T23:35:21.493Z,102310.72
2022-08-09T23:37:48.190Z,102299.59
2022-08-09T23:40:17.152Z,102297.38
2022-08-09T23:42:43.967Z,102302.19
2022-08-09T23:45:11.244Z,102306.88
2022-08-09T23:47:58.007Z,102305.59
2022-08-09T23:50:24.884Z,102306.06
2022-08-09T23:52:51.583Z,102305.03
2022-08-09T23:55:19.160Z,102300.16
2022-08-09T23:57:56.868Z,102302.75
